sensor_id;sensor_type;location;lat;lon;timestamp;temperature;humidity
14357;DHT22;7262;48.764;9.166;2024-02-04T00:06:07;8.80;99.90
14357;DHT22;7262;48.764;9.166;2024-02-04T00:29:30;8.70;99.90
14357;DHT22;7262;48.764;9.166;2024-02-04T00:37:08;8.60;99.90
14357;DHT22;7262;48.764;9.166;2024-02-04T00:47:33;8.20;99.90
14357;DHT22;7262;48.764;9.166;2024-02-04T00:50:14;8.20;99.90
14357;DHT22;7262;48.764;9.166;2024-02-04T00:52:41;8.10;99.90
14357;DHT22;7262;48.764;9.166;2024-02-04T00:55:08;8.00;99.90
14357;DHT22;7262;48.764;9.166;2024-02-04T00:57:35;7.90;99.90
14357;DHT22;7262;48.764;9.166;2024-02-04T01:00:02;7.90;99.90
14357;DHT22;7262;48.764;9.166;2024-02-04T01:02:30;7.80;99.90
14357;DHT22;7262;48.764;9.166;2024-02-04T01:04:58;7.80;99.90
14357;DHT22;7262;48.764;9.166;2024-02-04T01:07:24;7.70;99.90
14357;DHT22;7262;48.764;9.166;2024-02-04T01:09:52;7.70;99.90
14357;DHT22;7262;48.764;9.166;2024-02-04T01:12:19;7.70;99.90
14357;DHT22;7262;48.764;9.166;2024-02-04T01:14:45;7.80;99.90
14357;DHT22;7262;48.764;9.166;2024-02-04T01:17:12;7.80;99.90
14357;DHT22;7262;48.764;9.166;2024-02-04T01:19:39;7.80;99.90
14357;DHT22;7262;48.764;9.166;2024-02-04T01:22:07;7.90;99.90
14357;DHT22;7262;48.764;9.166;2024-02-04T01:24:34;7.90;99.90
14357;DHT22;7262;48.764;9.166;2024-02-04T01:27:00;7.90;99.90
14357;DHT22;7262;48.764;9.166;2024-02-04T01:29:27;8.00;99.90
14357;DHT22;7262;48.764;9.166;2024-02-04T01:31:54;7.90;99.90
14357;DHT22;7262;48.764;9.166;2024-02-04T01:34:20;7.90;99.90
14357;DHT22;7262;48.764;9.166;2024-02-04T01:36:47;7.80;99.90
14357;DHT22;7262;48.764;9.166;2024-02-04T01:39:15;7.70;99.90
14357;DHT22;7262;48.764;9.166;2024-02-04T01:41:42;7.60;99.90
14357;DHT22;7262;48.764;9.166;2024-02-04T01:44:11;7.50;99.90
14357;DHT22;7262;48.764;9.166;2024-02-04T01:46:37;7.50;99.90
14357;DHT22;7262;48.764;9.166;2024-02-04T01:49:04;7.60;99.90
14357;DHT22;7262;48.764;9.166;2024-02-04T01:51:31;7.60;99.90
14357;DHT22;7262;48.764;9.166;2024-02-04T01:53:58;7.60;99.90
14357;DHT22;7262;48.764;9.166;2024-02-04T01:56:26;7.60;99.90
14357;DHT22;7262;48.764;9.166;2024-02-04T01:58:53;7.60;99.90
14357;DHT22;7262;48.764;9.166;2024-02-04T02:01:20;7.70;99.90
14357;DHT22;7262;48.764;9.166;2024-02-04T02:03:47;7.80;99.90
14357;DHT22;7262;48.764;9.166;2024-02-04T02:06:15;7.80;99.90
14357;DHT22;7262;48.764;9.166;2024-02-04T02:08:42;7.90;99.90
14357;DHT22;7262;48.764;9.166;2024-02-04T02:11:10;7.90;99.90
14357;DHT22;7262;48.764;9.166;2024-02-04T02:13:39;7.90;99.90
14357;DHT22;7262;48.764;9.166;2024-02-04T02:16:07;7.80;99.90
14357;DHT22;7262;48.764;9.166;2024-02-04T02:18:37;7.80;99.90
14357;DHT22;7262;48.764;9.166;2024-02-04T02:21:12;7.80;99.90
14357;DHT22;7262;48.764;9.166;2024-02-04T02:23:48;7.80;99.90
14357;DHT22;7262;48.764;9.166;2024-02-04T02:26:17;7.80;99.90
14357;DHT22;7262;48.764;9.166;2024-02-04T02:28:45;7.80;99.90
14357;DHT22;7262;48.764;9.166;2024-02-04T02:31:12;7.80;99.90
14357;DHT22;7262;48.764;9.166;2024-02-04T02:33:39;7.80;99.90
14357;DHT22;7262;48.764;9.166;2024-02-04T02:36:06;7.80;99.90
14357;DHT22;7262;48.764;9.166;2024-02-04T02:38:37;7.80;99.90
14357;DHT22;7262;48.764;9.166;2024-02-04T02:41:09;7.80;99.90
14357;DHT22;7262;48.764;9.166;2024-02-04T02:43:37;7.90;99.90
14357;DHT22;7262;48.764;9.166;2024-02-04T02:46:06;7.90;99.90
14357;DHT22;7262;48.764;9.166;2024-02-04T02:48:34;8.00;99.90
14357;DHT22;7262;48.764;9.166;2024-02-04T02:51:01;8.10;99.90
14357;DHT22;7262;48.764;9.166;2024-02-04T02:53:28;8.10;99.90
14357;DHT22;7262;48.764;9.166;2024-02-04T02:55:55;8.10;99.90
14357;DHT22;7262;48.764;9.166;2024-02-04T02:58:21;8.10;99.90
14357;DHT22;7262;48.764;9.166;2024-02-04T03:00:50;8.10;99.90
14357;DHT22;7262;48.764;9.166;2024-02-04T03:03:16;8.10;99.90
14357;DHT22;7262;48.764;9.166;2024-02-04T03:05:43;8.00;99.90
14357;DHT22;7262;48.764;9.166;2024-02-04T03:08:10;8.10;99.90
14357;DHT22;7262;48.764;9.166;2024-02-04T03:10:37;8.10;99.90
14357;DHT22;7262;48.764;9.166;2024-02-04T03:13:03;8.10;99.90
14357;DHT22;7262;48.764;9.166;2024-02-04T03:15:31;8.10;99.90
14357;DHT22;7262;48.764;9.166;2024-02-04T03:17:59;8.10;99.90
14357;DHT22;7262;48.764;9.166;2024-02-04T03:20:25;8.10;99.90
14357;DHT22;7262;48.764;9.166;2024-02-04T03:22:52;8.10;99.90
14357;DHT22;7262;48.764;9.166;2024-02-04T03:25:19;8.10;99.90
14357;DHT22;7262;48.764;9.166;2024-02-04T03:27:46;8.10;99.90
14357;DHT22;7262;48.764;9.166;2024-02-04T03:30:13;8.10;99.90
14357;DHT22;7262;48.764;9.166;2024-02-04T03:32:40;8.10;99.90
14357;DHT22;7262;48.764;9.166;2024-02-04T03:35:08;8.10;99.90
14357;DHT22;7262;48.764;9.166;2024-02-04T03:37:35;8.10;99.90
14357;DHT22;7262;48.764;9.166;2024-02-04T03:40:02;8.10;99.90
14357;DHT22;7262;48.764;9.166;2024-02-04T03:42:29;8.10;99.90
14357;DHT22;7262;48.764;9.166;2024-02-04T03:44:55;8.10;99.90
14357;DHT22;7262;48.764;9.166;2024-02-04T03:47:22;8.20;99.90
14357;DHT22;7262;48.764;9.166;2024-02-04T03:49:49;8.20;99.90
14357;DHT22;7262;48.764;9.166;2024-02-04T03:52:17;8.20;99.90
14357;DHT22;7262;48.764;9.166;2024-02-04T03:54:44;8.20;99.90
14357;DHT22;7262;48.764;9.166;2024-02-04T03:57:10;8.20;99.90
14357;DHT22;7262;48.764;9.166;2024-02-04T03:59:37;8.30;99.90
14357;DHT22;7262;48.764;9.166;2024-02-04T04:02:04;8.20;99.90
14357;DHT22;7262;48.764;9.166;2024-02-04T04:04:31;8.30;99.90
14357;DHT22;7262;48.764;9.166;2024-02-04T04:06:58;8.30;99.90
14357;DHT22;7262;48.764;9.166;2024-02-04T04:09:26;8.40;99.90
14357;DHT22;7262;48.764;9.166;2024-02-04T04:11:53;8.20;99.90
14357;DHT22;7262;48.764;9.166;2024-02-04T04:14:19;8.20;99.90
14357;DHT22;7262;48.764;9.166;2024-02-04T04:16:46;8.20;99.90
14357;DHT22;7262;48.764;9.166;2024-02-04T04:19:13;8.20;99.90
14357;DHT22;7262;48.764;9.166;2024-02-04T04:21:40;8.20;99.90
14357;DHT22;7262;48.764;9.166;2024-02-04T04:24:06;8.20;99.90
14357;DHT22;7262;48.764;9.166;2024-02-04T04:26:35;8.20;99.90
14357;DHT22;7262;48.764;9.166;2024-02-04T04:29:02;8.20;99.90
14357;DHT22;7262;48.764;9.166;2024-02-04T04:31:28;8.20;99.90
14357;DHT22;7262;48.764;9.166;2024-02-04T04:33:55;8.20;99.90
14357;DHT22;7262;48.764;9.166;2024-02-04T04:36:22;8.20;99.90
14357;DHT22;7262;48.764;9.166;2024-02-04T04:38:48;8.10;99.90
14357;DHT22;7262;48.764;9.166;2024-02-04T04:41:16;8.10;99.90
14357;DHT22;7262;48.764;9.166;2024-02-04T04:43:44;8.10;99.90
14357;DHT22;7262;48.764;9.166;2024-02-04T04:46:10;8.10;99.90
14357;DHT22;7262;48.764;9.166;2024-02-04T04:48:37;8.10;99.90
14357;DHT22;7262;48.764;9.166;2024-02-04T04:51:04;8.00;99.90
14357;DHT22;7262;48.764;9.166;2024-02-04T04:53:31;8.00;99.90
14357;DHT22;7262;48.764;9.166;2024-02-04T04:55:57;8.10;99.90
14357;DHT22;7262;48.764;9.166;2024-02-04T04:58:24;8.00;99.90
14357;DHT22;7262;48.764;9.166;2024-02-04T05:00:52;8.00;99.90
14357;DHT22;7262;48.764;9.166;2024-02-04T05:03:18;8.10;99.90
14357;DHT22;7262;48.764;9.166;2024-02-04T05:05:45;8.10;99.90
14357;DHT22;7262;48.764;9.166;2024-02-04T05:08:12;8.10;99.90
14357;DHT22;7262;48.764;9.166;2024-02-04T05:10:39;8.10;99.90
14357;DHT22;7262;48.764;9.166;2024-02-04T05:13:06;8.20;99.90
14357;DHT22;7262;48.764;9.166;2024-02-04T05:15:33;8.20;99.90
14357;DHT22;7262;48.764;9.166;2024-02-04T05:18:02;8.20;99.90
14357;DHT22;7262;48.764;9.166;2024-02-04T05:20:29;8.20;99.90
14357;DHT22;7262;48.764;9.166;2024-02-04T05:22:56;8.10;99.90
14357;DHT22;7262;48.764;9.166;2024-02-04T05:25:23;8.10;99.90
14357;DHT22;7262;48.764;9.166;2024-02-04T05:27:50;8.20;99.90
14357;DHT22;7262;48.764;9.166;2024-02-04T05:30:17;8.10;99.90
14357;DHT22;7262;48.764;9.166;2024-02-04T05:32:44;8.10;99.90
14357;DHT22;7262;48.764;9.166;2024-02-04T05:35:12;8.10;99.90
14357;DHT22;7262;48.764;9.166;2024-02-04T05:37:39;8.10;99.90
14357;DHT22;7262;48.764;9.166;2024-02-04T05:40:06;8.00;99.90
14357;DHT22;7262;48.764;9.166;2024-02-04T05:42:33;8.10;99.90
14357;DHT22;7262;48.764;9.166;2024-02-04T05:45:00;8.10;99.90
14357;DHT22;7262;48.764;9.166;2024-02-04T05:47:27;8.10;99.90
14357;DHT22;7262;48.764;9.166;2024-02-04T05:49:54;8.10;99.90
14357;DHT22;7262;48.764;9.166;2024-02-04T05:52:22;8.10;99.90
14357;DHT22;7262;48.764;9.166;2024-02-04T05:54:49;8.10;99.90
14357;DHT22;7262;48.764;9.166;2024-02-04T05:57:15;8.10;99.90
14357;DHT22;7262;48.764;9.166;2024-02-04T05:59:42;8.10;99.90
14357;DHT22;7262;48.764;9.166;2024-02-04T06:02:12;8.20;99.90
14357;DHT22;7262;48.764;9.166;2024-02-04T06:04:40;8.10;99.90
14357;DHT22;7262;48.764;9.166;2024-02-04T06:07:08;8.00;99.90
14357;DHT22;7262;48.764;9.166;2024-02-04T06:09:36;8.00;99.90
14357;DHT22;7262;48.764;9.166;2024-02-04T06:12:03;8.00;99.90
14357;DHT22;7262;48.764;9.166;2024-02-04T06:14:32;8.10;99.90
14357;DHT22;7262;48.764;9.166;2024-02-04T06:16:59;8.00;99.90
14357;DHT22;7262;48.764;9.166;2024-02-04T06:19:26;8.10;99.90
14357;DHT22;7262;48.764;9.166;2024-02-04T06:21:53;8.10;99.90
14357;DHT22;7262;48.764;9.166;2024-02-04T06:24:20;8.10;99.90
14357;DHT22;7262;48.764;9.166;2024-02-04T06:26:48;8.10;99.90
14357;DHT22;7262;48.764;9.166;2024-02-04T06:29:15;8.20;99.90
14357;DHT22;7262;48.764;9.166;2024-02-04T06:31:43;8.20;99.90
14357;DHT22;7262;48.764;9.166;2024-02-04T06:34:10;8.20;99.90
14357;DHT22;7262;48.764;9.166;2024-02-04T06:36:37;8.20;99.90
14357;DHT22;7262;48.764;9.166;2024-02-04T06:39:04;8.20;99.90
14357;DHT22;7262;48.764;9.166;2024-02-04T06:41:33;8.20;99.90
14357;DHT22;7262;48.764;9.166;2024-02-04T06:44:02;8.20;99.90
14357;DHT22;7262;48.764;9.166;2024-02-04T06:46:29;8.30;99.90
14357;DHT22;7262;48.764;9.166;2024-02-04T06:48:56;8.20;99.90
14357;DHT22;7262;48.764;9.166;2024-02-04T06:51:24;8.00;99.90
14357;DHT22;7262;48.764;9.166;2024-02-04T06:53:50;8.20;99.90
14357;DHT22;7262;48.764;9.166;2024-02-04T06:56:17;8.10;99.90
14357;DHT22;7262;48.764;9.166;2024-02-04T06:58:46;8.20;99.90
14357;DHT22;7262;48.764;9.166;2024-02-04T07:01:33;8.10;99.90
14357;DHT22;7262;48.764;9.166;2024-02-04T07:04:03;8.20;99.90
14357;DHT22;7262;48.764;9.166;2024-02-04T07:06:29;8.10;99.90
14357;DHT22;7262;48.764;9.166;2024-02-04T07:08:56;8.20;99.90
14357;DHT22;7262;48.764;9.166;2024-02-04T07:11:24;8.20;99.90
14357;DHT22;7262;48.764;9.166;2024-02-04T07:13:51;8.10;99.90
14357;DHT22;7262;48.764;9.166;2024-02-04T07:16:23;8.10;99.90
14357;DHT22;7262;48.764;9.166;2024-02-04T07:18:54;8.10;99.90
14357;DHT22;7262;48.764;9.166;2024-02-04T07:21:21;8.20;99.90
14357;DHT22;7262;48.764;9.166;2024-02-04T07:23:48;8.10;99.90
14357;DHT22;7262;48.764;9.166;2024-02-04T07:26:14;8.30;99.90
14357;DHT22;7262;48.764;9.166;2024-02-04T07:28:41;8.20;99.90
14357;DHT22;7262;48.764;9.166;2024-02-04T07:31:08;8.10;99.90
14357;DHT22;7262;48.764;9.166;2024-02-04T07:33:35;8.20;99.90
14357;DHT22;7262;48.764;9.166;2024-02-04T07:36:03;8.20;99.90
14357;DHT22;7262;48.764;9.166;2024-02-04T07:38:30;8.10;99.90
14357;DHT22;7262;48.764;9.166;2024-02-04T07:40:57;8.20;99.90
14357;DHT22;7262;48.764;9.166;2024-02-04T07:43:24;8.30;99.90
14357;DHT22;7262;48.764;9.166;2024-02-04T07:45:51;8.20;99.90
14357;DHT22;7262;48.764;9.166;2024-02-04T07:48:18;8.30;99.90
14357;DHT22;7262;48.764;9.166;2024-02-04T07:50:46;8.50;99.90
14357;DHT22;7262;48.764;9.166;2024-02-04T09:03:56;9.40;99.90
14357;DHT22;7262;48.764;9.166;2024-02-04T09:06:23;9.50;99.90
14357;DHT22;7262;48.764;9.166;2024-02-04T09:08:50;9.50;99.90
14357;DHT22;7262;48.764;9.166;2024-02-04T09:11:17;9.60;99.90
14357;DHT22;7262;48.764;9.166;2024-02-04T09:13:46;9.60;99.90
14357;DHT22;7262;48.764;9.166;2024-02-04T09:16:12;9.70;99.90
14357;DHT22;7262;48.764;9.166;2024-02-04T09:18:39;9.80;99.90
14357;DHT22;7262;48.764;9.166;2024-02-04T09:21:07;9.90;99.90
14357;DHT22;7262;48.764;9.166;2024-02-04T09:23:34;9.90;99.90
14357;DHT22;7262;48.764;9.166;2024-02-04T09:26:01;10.00;99.90
14357;DHT22;7262;48.764;9.166;2024-02-04T09:28:28;10.10;99.90
14357;DHT22;7262;48.764;9.166;2024-02-04T09:30:55;10.30;99.90
14357;DHT22;7262;48.764;9.166;2024-02-04T09:33:22;10.30;99.90
14357;DHT22;7262;48.764;9.166;2024-02-04T09:35:49;10.40;99.90
14357;DHT22;7262;48.764;9.166;2024-02-04T09:38:20;10.40;99.90
14357;DHT22;7262;48.764;9.166;2024-02-04T09:40:47;10.50;99.90
14357;DHT22;7262;48.764;9.166;2024-02-04T09:43:14;10.60;99.90
14357;DHT22;7262;48.764;9.166;2024-02-04T09:45:41;10.60;99.90
14357;DHT22;7262;48.764;9.166;2024-02-04T09:48:09;10.70;99.90
14357;DHT22;7262;48.764;9.166;2024-02-04T09:50:36;10.90;99.90
14357;DHT22;7262;48.764;9.166;2024-02-04T09:53:03;11.20;99.90
14357;DHT22;7262;48.764;9.166;2024-02-04T09:55:36;11.50;99.90
14357;DHT22;7262;48.764;9.166;2024-02-04T09:58:05;11.40;99.90
14357;DHT22;7262;48.764;9.166;2024-02-04T10:00:31;11.50;99.90
14357;DHT22;7262;48.764;9.166;2024-02-04T10:02:59;11.40;99.90
14357;DHT22;7262;48.764;9.166;2024-02-04T10:05:26;11.50;99.90
14357;DHT22;7262;48.764;9.166;2024-02-04T10:07:54;11.30;99.90
14357;DHT22;7262;48.764;9.166;2024-02-04T10:10:21;11.20;99.90
14357;DHT22;7262;48.764;9.166;2024-02-04T10:12:49;11.30;99.90
14357;DHT22;7262;48.764;9.166;2024-02-04T10:15:16;11.40;99.90
14357;DHT22;7262;48.764;9.166;2024-02-04T10:17:44;11.40;99.90
14357;DHT22;7262;48.764;9.166;2024-02-04T10:20:12;11.60;99.90
14357;DHT22;7262;48.764;9.166;2024-02-04T10:22:39;11.80;99.90
14357;DHT22;7262;48.764;9.166;2024-02-04T10:25:08;12.00;99.90
14357;DHT22;7262;48.764;9.166;2024-02-04T10:27:37;12.40;99.90
14357;DHT22;7262;48.764;9.166;2024-02-04T10:30:07;12.60;99.90
14357;DHT22;7262;48.764;9.166;2024-02-04T10:32:35;12.60;99.90
14357;DHT22;7262;48.764;9.166;2024-02-04T10:35:01;12.60;99.90
14357;DHT22;7262;48.764;9.166;2024-02-04T10:37:28;12.80;99.90
14357;DHT22;7262;48.764;9.166;2024-02-04T10:39:55;12.80;99.90
14357;DHT22;7262;48.764;9.166;2024-02-04T10:42:23;12.90;99.90
14357;DHT22;7262;48.764;9.166;2024-02-04T10:44:51;12.60;99.90
14357;DHT22;7262;48.764;9.166;2024-02-04T10:47:21;12.60;99.90
14357;DHT22;7262;48.764;9.166;2024-02-04T10:49:50;12.70;99.90
14357;DHT22;7262;48.764;9.166;2024-02-04T10:52:18;13.00;99.90
14357;DHT22;7262;48.764;9.166;2024-02-04T10:54:45;13.10;99.90
14357;DHT22;7262;48.764;9.166;2024-02-04T10:57:17;13.20;99.90
14357;DHT22;7262;48.764;9.166;2024-02-04T10:59:46;13.40;99.90
14357;DHT22;7262;48.764;9.166;2024-02-04T11:02:13;13.30;99.90
14357;DHT22;7262;48.764;9.166;2024-02-04T11:04:42;13.10;99.90
14357;DHT22;7262;48.764;9.166;2024-02-04T11:07:10;12.90;99.90
14357;DHT22;7262;48.764;9.166;2024-02-04T11:09:39;12.90;99.90
14357;DHT22;7262;48.764;9.166;2024-02-04T11:12:06;13.00;99.90
14357;DHT22;7262;48.764;9.166;2024-02-04T11:14:35;13.10;99.90
14357;DHT22;7262;48.764;9.166;2024-02-04T11:17:16;13.50;99.90
14357;DHT22;7262;48.764;9.166;2024-02-04T11:19:52;13.80;99.90
14357;DHT22;7262;48.764;9.166;2024-02-04T11:25:09;13.90;99.90
14357;DHT22;7262;48.764;9.166;2024-02-04T11:27:38;14.10;99.90
14357;DHT22;7262;48.764;9.166;2024-02-04T11:30:06;14.80;99.90
14357;DHT22;7262;48.764;9.166;2024-02-04T11:32:34;15.10;99.90
14357;DHT22;7262;48.764;9.166;2024-02-04T11:35:02;15.10;99.90
14357;DHT22;7262;48.764;9.166;2024-02-04T11:37:33;15.80;99.90
14357;DHT22;7262;48.764;9.166;2024-02-04T11:40:00;17.30;99.90
14357;DHT22;7262;48.764;9.166;2024-02-04T11:42:31;18.20;99.90
14357;DHT22;7262;48.764;9.166;2024-02-04T11:45:06;18.40;99.90
14357;DHT22;7262;48.764;9.166;2024-02-04T11:47:33;18.00;99.90
14357;DHT22;7262;48.764;9.166;2024-02-04T11:50:00;17.00;99.90
14357;DHT22;7262;48.764;9.166;2024-02-04T11:52:28;16.80;99.90
14357;DHT22;7262;48.764;9.166;2024-02-04T11:54:55;16.50;99.90
14357;DHT22;7262;48.764;9.166;2024-02-04T11:57:22;17.00;99.90
14357;DHT22;7262;48.764;9.166;2024-02-04T11:59:49;16.70;99.90
14357;DHT22;7262;48.764;9.166;2024-02-04T12:02:17;16.10;99.90
14357;DHT22;7262;48.764;9.166;2024-02-04T12:04:44;15.20;99.90
14357;DHT22;7262;48.764;9.166;2024-02-04T12:07:11;14.90;99.90
14357;DHT22;7262;48.764;9.166;2024-02-04T12:09:41;14.60;99.90
14357;DHT22;7262;48.764;9.166;2024-02-04T12:12:08;14.50;99.90
14357;DHT22;7262;48.764;9.166;2024-02-04T12:14:36;15.00;99.90
14357;DHT22;7262;48.764;9.166;2024-02-04T12:17:06;15.10;99.90
14357;DHT22;7262;48.764;9.166;2024-02-04T12:19:34;14.90;99.90
14357;DHT22;7262;48.764;9.166;2024-02-04T12:22:00;14.20;99.90
14357;DHT22;7262;48.764;9.166;2024-02-04T12:24:33;14.00;99.90
14357;DHT22;7262;48.764;9.166;2024-02-04T12:27:01;13.80;99.90
14357;DHT22;7262;48.764;9.166;2024-02-04T12:29:28;13.40;99.90
14357;DHT22;7262;48.764;9.166;2024-02-04T12:31:58;13.40;99.90
14357;DHT22;7262;48.764;9.166;2024-02-04T12:34:25;13.30;99.90
14357;DHT22;7262;48.764;9.166;2024-02-04T12:36:57;13.10;99.90
14357;DHT22;7262;48.764;9.166;2024-02-04T12:39:24;13.30;99.90
14357;DHT22;7262;48.764;9.166;2024-02-04T12:41:50;13.20;99.90
14357;DHT22;7262;48.764;9.166;2024-02-04T12:44:19;13.30;99.90
14357;DHT22;7262;48.764;9.166;2024-02-04T12:46:49;13.40;99.90
14357;DHT22;7262;48.764;9.166;2024-02-04T12:49:18;14.20;99.90
14357;DHT22;7262;48.764;9.166;2024-02-04T12:51:46;15.10;99.90
14357;DHT22;7262;48.764;9.166;2024-02-04T12:54:12;15.50;99.90
14357;DHT22;7262;48.764;9.166;2024-02-04T12:56:41;15.70;99.90
14357;DHT22;7262;48.764;9.166;2024-02-04T12:59:07;15.60;99.90
14357;DHT22;7262;48.764;9.166;2024-02-04T13:01:36;15.50;99.90
14357;DHT22;7262;48.764;9.166;2024-02-04T13:04:03;15.60;99.90
14357;DHT22;7262;48.764;9.166;2024-02-04T13:06:30;15.70;99.90
14357;DHT22;7262;48.764;9.166;2024-02-04T13:08:58;15.70;99.90
14357;DHT22;7262;48.764;9.166;2024-02-04T13:11:26;15.50;99.90
14357;DHT22;7262;48.764;9.166;2024-02-04T13:13:52;15.20;99.90
14357;DHT22;7262;48.764;9.166;2024-02-04T13:16:19;14.90;99.90
14357;DHT22;7262;48.764;9.166;2024-02-04T13:18:52;14.70;99.90
14357;DHT22;7262;48.764;9.166;2024-02-04T13:21:20;14.50;99.90
14357;DHT22;7262;48.764;9.166;2024-02-04T13:23:47;14.60;99.90
14357;DHT22;7262;48.764;9.166;2024-02-04T13:26:14;14.20;99.90
14357;DHT22;7262;48.764;9.166;2024-02-04T13:28:41;13.70;99.90
14357;DHT22;7262;48.764;9.166;2024-02-04T13:31:08;13.60;99.90
14357;DHT22;7262;48.764;9.166;2024-02-04T13:33:37;13.50;99.90
14357;DHT22;7262;48.764;9.166;2024-02-04T13:36:06;13.50;99.90
14357;DHT22;7262;48.764;9.166;2024-02-04T13:38:33;13.30;99.90
14357;DHT22;7262;48.764;9.166;2024-02-04T13:41:00;13.40;99.90
14357;DHT22;7262;48.764;9.166;2024-02-04T14:54:58;12.00;99.90
14357;DHT22;7262;48.764;9.166;2024-02-04T14:57:28;11.90;99.90
14357;DHT22;7262;48.764;9.166;2024-02-04T14:59:55;12.00;99.90
14357;DHT22;7262;48.764;9.166;2024-02-04T15:02:22;11.80;99.90
14357;DHT22;7262;48.764;9.166;2024-02-04T15:04:49;11.80;99.90
14357;DHT22;7262;48.764;9.166;2024-02-04T15:07:16;11.70;99.90
14357;DHT22;7262;48.764;9.166;2024-02-04T15:09:43;11.70;99.90
14357;DHT22;7262;48.764;9.166;2024-02-04T15:12:12;11.60;99.90
14357;DHT22;7262;48.764;9.166;2024-02-04T15:14:40;11.60;99.90
14357;DHT22;7262;48.764;9.166;2024-02-04T15:17:07;11.50;99.90
14357;DHT22;7262;48.764;9.166;2024-02-04T15:19:34;11.40;99.90
14357;DHT22;7262;48.764;9.166;2024-02-04T15:22:01;11.40;99.90
14357;DHT22;7262;48.764;9.166;2024-02-04T15:24:29;11.50;99.90
14357;DHT22;7262;48.764;9.166;2024-02-04T15:26:57;11.60;99.90
14357;DHT22;7262;48.764;9.166;2024-02-04T15:29:31;11.50;99.90
14357;DHT22;7262;48.764;9.166;2024-02-04T15:32:00;11.30;99.90
14357;DHT22;7262;48.764;9.166;2024-02-04T15:34:27;11.40;99.90
14357;DHT22;7262;48.764;9.166;2024-02-04T15:36:57;11.30;99.90
14357;DHT22;7262;48.764;9.166;2024-02-04T15:39:24;11.20;99.90
14357;DHT22;7262;48.764;9.166;2024-02-04T15:41:50;11.20;99.90
14357;DHT22;7262;48.764;9.166;2024-02-04T15:44:18;11.10;99.90
14357;DHT22;7262;48.764;9.166;2024-02-04T15:46:47;11.10;99.90
14357;DHT22;7262;48.764;9.166;2024-02-04T15:49:15;11.10;99.90
14357;DHT22;7262;48.764;9.166;2024-02-04T15:51:43;11.00;99.90
14357;DHT22;7262;48.764;9.166;2024-02-04T15:54:11;11.00;99.90
14357;DHT22;7262;48.764;9.166;2024-02-04T15:56:41;10.90;99.90
14357;DHT22;7262;48.764;9.166;2024-02-04T15:59:08;10.90;99.90
14357;DHT22;7262;48.764;9.166;2024-02-04T16:01:37;10.80;99.90
14357;DHT22;7262;48.764;9.166;2024-02-04T16:04:07;10.80;99.90
14357;DHT22;7262;48.764;9.166;2024-02-04T16:06:34;10.70;99.90
14357;DHT22;7262;48.764;9.166;2024-02-04T16:09:02;10.80;99.90
14357;DHT22;7262;48.764;9.166;2024-02-04T16:11:30;10.60;99.90
14357;DHT22;7262;48.764;9.166;2024-02-04T16:14:01;10.50;99.90
14357;DHT22;7262;48.764;9.166;2024-02-04T16:16:30;10.40;99.90
14357;DHT22;7262;48.764;9.166;2024-02-04T16:19:00;10.40;99.90
14357;DHT22;7262;48.764;9.166;2024-02-04T16:21:32;10.30;99.90
14357;DHT22;7262;48.764;9.166;2024-02-04T16:23:59;10.30;99.90
14357;DHT22;7262;48.764;9.166;2024-02-04T16:26:25;10.30;99.90
14357;DHT22;7262;48.764;9.166;2024-02-04T16:28:52;10.10;99.90
14357;DHT22;7262;48.764;9.166;2024-02-04T16:31:19;10.30;99.90
14357;DHT22;7262;48.764;9.166;2024-02-04T16:33:46;10.10;99.90
14357;DHT22;7262;48.764;9.166;2024-02-04T16:36:13;10.10;99.90
14357;DHT22;7262;48.764;9.166;2024-02-04T16:38:42;10.10;99.90
14357;DHT22;7262;48.764;9.166;2024-02-04T16:41:09;10.10;99.90
14357;DHT22;7262;48.764;9.166;2024-02-04T16:43:37;10.00;99.90
14357;DHT22;7262;48.764;9.166;2024-02-04T16:46:04;9.90;99.90
14357;DHT22;7262;48.764;9.166;2024-02-04T16:48:30;10.00;99.90
14357;DHT22;7262;48.764;9.166;2024-02-04T16:50:59;10.00;99.90
14357;DHT22;7262;48.764;9.166;2024-02-04T16:53:26;9.90;99.90
14357;DHT22;7262;48.764;9.166;2024-02-04T16:55:56;9.90;99.90
14357;DHT22;7262;48.764;9.166;2024-02-04T16:58:23;9.90;99.90
14357;DHT22;7262;48.764;9.166;2024-02-04T17:00:50;9.90;99.90
14357;DHT22;7262;48.764;9.166;2024-02-04T17:03:18;9.80;99.90
14357;DHT22;7262;48.764;9.166;2024-02-04T17:05:45;10.00;99.90
14357;DHT22;7262;48.764;9.166;2024-02-04T17:08:13;10.00;99.90
14357;DHT22;7262;48.764;9.166;2024-02-04T17:10:40;9.90;99.90
14357;DHT22;7262;48.764;9.166;2024-02-04T18:45:15;9.20;99.90
14357;DHT22;7262;48.764;9.166;2024-02-04T18:50:18;9.20;99.90
14357;DHT22;7262;48.764;9.166;2024-02-04T19:34:12;8.80;99.90
14357;DHT22;7262;48.764;9.166;2024-02-04T19:36:39;8.80;99.90
14357;DHT22;7262;48.764;9.166;2024-02-04T19:39:06;8.70;99.90
14357;DHT22;7262;48.764;9.166;2024-02-04T19:41:33;8.60;99.90
14357;DHT22;7262;48.764;9.166;2024-02-04T19:44:00;8.60;99.90
14357;DHT22;7262;48.764;9.166;2024-02-04T19:46:27;8.60;99.90
14357;DHT22;7262;48.764;9.166;2024-02-04T19:48:53;8.60;99.90
14357;DHT22;7262;48.764;9.166;2024-02-04T19:51:21;8.60;99.90
14357;DHT22;7262;48.764;9.166;2024-02-04T19:53:49;8.70;99.90
14357;DHT22;7262;48.764;9.166;2024-02-04T19:56:15;8.50;99.90
14357;DHT22;7262;48.764;9.166;2024-02-04T19:58:42;8.50;99.90
14357;DHT22;7262;48.764;9.166;2024-02-04T20:01:09;8.50;99.90
14357;DHT22;7262;48.764;9.166;2024-02-04T20:03:36;8.60;99.90
14357;DHT22;7262;48.764;9.166;2024-02-04T20:06:03;8.60;99.90
14357;DHT22;7262;48.764;9.166;2024-02-04T20:08:32;8.70;99.90
14357;DHT22;7262;48.764;9.166;2024-02-04T20:11:00;8.70;99.90
14357;DHT22;7262;48.764;9.166;2024-02-04T20:13:28;8.70;99.90
14357;DHT22;7262;48.764;9.166;2024-02-04T20:15:58;8.70;99.90
14357;DHT22;7262;48.764;9.166;2024-02-04T20:18:26;8.70;99.90
14357;DHT22;7262;48.764;9.166;2024-02-04T20:20:53;8.70;99.90
14357;DHT22;7262;48.764;9.166;2024-02-04T20:23:20;8.70;99.90
14357;DHT22;7262;48.764;9.166;2024-02-04T20:25:48;8.70;99.90
14357;DHT22;7262;48.764;9.166;2024-02-04T20:28:20;8.70;99.90
14357;DHT22;7262;48.764;9.166;2024-02-04T20:30:49;8.70;99.90
14357;DHT22;7262;48.764;9.166;2024-02-04T20:33:15;8.70;99.90
14357;DHT22;7262;48.764;9.166;2024-02-04T20:35:43;8.70;99.90
14357;DHT22;7262;48.764;9.166;2024-02-04T20:38:10;8.50;99.90
14357;DHT22;7262;48.764;9.166;2024-02-04T20:40:37;8.50;99.90
14357;DHT22;7262;48.764;9.166;2024-02-04T21:54:38;7.70;99.90
14357;DHT22;7262;48.764;9.166;2024-02-04T21:57:06;7.60;99.90
14357;DHT22;7262;48.764;9.166;2024-02-04T21:59:33;7.50;99.90
14357;DHT22;7262;48.764;9.166;2024-02-04T22:02:00;7.30;99.90
14357;DHT22;7262;48.764;9.166;2024-02-04T22:04:27;7.30;99.90
14357;DHT22;7262;48.764;9.166;2024-02-04T22:06:54;7.30;99.90
14357;DHT22;7262;48.764;9.166;2024-02-04T22:09:21;7.20;99.90
14357;DHT22;7262;48.764;9.166;2024-02-04T22:11:49;7.10;99.90
14357;DHT22;7262;48.764;9.166;2024-02-04T22:14:17;7.10;99.90
14357;DHT22;7262;48.764;9.166;2024-02-04T22:16:45;7.10;99.90
14357;DHT22;7262;48.764;9.166;2024-02-04T22:19:12;6.90;99.90
14357;DHT22;7262;48.764;9.166;2024-02-04T22:21:39;6.90;99.90
14357;DHT22;7262;48.764;9.166;2024-02-04T22:24:06;6.90;99.90
14357;DHT22;7262;48.764;9.166;2024-02-04T22:26:33;6.90;99.90
14357;DHT22;7262;48.764;9.166;2024-02-04T22:29:01;6.80;99.90